createdAt,value
2022-11-14T00:00:15.956Z,101246.25
2022-11-14T00:05:42.188Z,101323.31
2022-11-14T00:11:04.087Z,101318.16
2022-11-14T00:16:25.050Z,101314.53
2022-11-14T00:21:47.433Z,101303.16
2022-11-14T00:27:08.311Z,101304.97
2022-11-14T00:32:29.351Z,101310.63
2022-11-14T00:37:51.603Z,101306.03
2022-11-14T00:43:12.758Z,101301.91
2022-11-14T00:48:34.264Z,101298.09
2022-11-14T00:53:56.683Z,101298.56
2022-11-14T00:59:18.016Z,101281.31
2022-11-14T01:04:39.089Z,101278.06
2022-11-14T01:10:01.729Z,101267.78
2022-11-14T01:15:23.435Z,101272.47
2022-11-14T01:20:46.755Z,101259.00
2022-11-14T01:26:11.051Z,101255.81
2022-11-14T01:31:32.200Z,101250.22
2022-11-14T01:36:53.438Z,101245.28
2022-11-14T01:42:17.550Z,101235.03
2022-11-14T01:47:39.229Z,101226.72
2022-11-14T01:53:00.147Z,101197.63
2022-11-14T01:58:24.114Z,101228.56
2022-11-14T02:03:48.595Z,101213.78
2022-11-14T02:09:09.636Z,101220.13
2022-11-14T02:14:33.509Z,101211.06
2022-11-14T02:20:02.207Z,101204.13
2022-11-14T02:25:27.459Z,101193.50
2022-11-14T02:30:49.031Z,101193.63
2022-11-14T02:36:10.780Z,101187.56
2022-11-14T02:41:33.148Z,101182.22
2022-11-14T02:46:54.954Z,101175.81
2022-11-14T02:52:16.129Z,101172.72
2022-11-14T02:57:39.060Z,101158.69
2022-11-14T03:03:00.444Z,101146.34
2022-11-14T03:08:21.700Z,101169.56
2022-11-14T03:13:44.390Z,101165.06
2022-11-14T03:19:06.011Z,101147.28
2022-11-14T03:24:27.233Z,101142.31
2022-11-14T03:29:50.314Z,101135.34
2022-11-14T03:35:12.301Z,101134.44
2022-11-14T03:40:33.407Z,101143.50
2022-11-14T03:45:58.981Z,101146.22
2022-11-14T03:51:20.170Z,101133.94
2022-11-14T03:56:41.316Z,101133.91
2022-11-14T04:02:03.991Z,101125.88
2022-11-14T04:07:25.477Z,101123.81
2022-11-14T04:12:49.708Z,101010.31
2022-11-14T04:18:12.380Z,101113.84
2022-11-14T04:23:33.531Z,101102.00
2022-11-14T04:28:55.794Z,101109.25
2022-11-14T04:34:19.054Z,101109.66
2022-11-14T04:39:40.037Z,101104.59
2022-11-14T04:45:01.181Z,101108.97
2022-11-14T04:50:23.778Z,101105.94
2022-11-14T04:55:45.824Z,101104.66
2022-11-14T05:01:11.652Z,101071.97
2022-11-14T05:06:34.106Z,101097.53
2022-11-14T05:11:55.547Z,101081.50
2022-11-14T05:17:16.499Z,101075.38
2022-11-14T05:22:38.891Z,101077.31
2022-11-14T05:28:00.415Z,101070.75
2022-11-14T05:33:21.644Z,101072.09
2022-11-14T05:38:44.676Z,101064.31
2022-11-14T05:44:06.316Z,101069.88
2022-11-14T05:49:27.300Z,101061.47
2022-11-14T05:54:50.422Z,101054.72
2022-11-14T06:00:13.189Z,101052.91
2022-11-14T06:05:35.866Z,101049.25
2022-11-14T06:11:02.873Z,101054.38
2022-11-14T06:16:24.573Z,101050.44
2022-11-14T06:21:45.783Z,101050.97
2022-11-14T06:27:08.271Z,101045.44
2022-11-14T06:32:29.558Z,101061.06
2022-11-14T06:37:50.990Z,101063.31
2022-11-14T06:43:13.490Z,101053.78
2022-11-14T06:48:35.413Z,101052.38
2022-11-14T06:53:56.803Z,101060.16
2022-11-14T06:59:19.533Z,101055.28
2022-11-14T07:04:40.872Z,101054.97
2022-11-14T07:10:02.404Z,101059.03
2022-11-14T07:15:24.507Z,101045.19
2022-11-14T07:20:45.548Z,101063.63
2022-11-14T07:26:08.974Z,101020.22
2022-11-14T07:31:31.646Z,101048.78
2022-11-14T07:36:52.993Z,101049.84
2022-11-14T07:42:14.456Z,101045.44
2022-11-14T07:47:37.098Z,101050.44
2022-11-14T07:52:58.492Z,101057.00
2022-11-14T07:58:19.741Z,101021.50
2022-11-14T08:03:45.717Z,101054.97
2022-11-14T08:15:56.259Z,101031.84
2022-11-14T08:21:18.877Z,101058.69
2022-11-14T08:26:40.475Z,101052.72
2022-11-14T08:32:01.540Z,101053.31
2022-11-14T08:37:24.229Z,100993.03
2022-11-14T08:42:45.361Z,101041.06
2022-11-14T08:48:07.012Z,101025.47
2022-11-14T08:53:30.727Z,101019.00
2022-11-14T08:58:51.783Z,100991.72
2022-11-14T09:04:13.257Z,101034.94
2022-11-14T09:09:35.924Z,101029.94
2022-11-14T09:14:57.031Z,101027.50
2022-11-14T09:20:18.811Z,101022.56
2022-11-14T09:25:41.550Z,101022.78
2022-11-14T09:31:02.923Z,101022.84
2022-11-14T09:36:24.182Z,101035.72
2022-11-14T09:41:59.524Z,101028.75
2022-11-14T09:47:25.499Z,101031.13
2022-11-14T09:52:53.115Z,101032.16
2022-11-14T09:58:19.822Z,101028.25
2022-11-14T10:03:50.860Z,101017.00
2022-11-14T10:09:35.705Z,101010.84
2022-11-14T10:15:09.017Z,101013.09
2022-11-14T10:20:34.727Z,101010.53
2022-11-14T10:26:04.977Z,100988.47
2022-11-14T10:31:39.086Z,100992.13
2022-11-14T10:37:06.314Z,100987.94
2022-11-14T10:42:33.006Z,100977.56
2022-11-14T10:48:00.124Z,100886.44
2022-11-14T10:53:28.198Z,100982.47
2022-11-14T10:58:50.146Z,100982.59
2022-11-14T11:04:22.317Z,100976.09
2022-11-14T11:10:01.285Z,100940.53
2022-11-14T11:15:24.576Z,100862.44
2022-11-14T11:21:03.398Z,100978.13
2022-11-14T11:26:26.706Z,100982.22
2022-11-14T11:31:53.005Z,100985.53
2022-11-14T11:37:19.415Z,100924.34
2022-11-14T11:48:35.691Z,100902.25
2022-11-14T11:54:04.917Z,100916.97
2022-11-14T11:59:34.390Z,100902.66
2022-11-14T12:04:57.837Z,100892.63
2022-11-14T12:10:25.821Z,100898.28
2022-11-14T12:15:57.847Z,100873.94
2022-11-14T12:21:36.494Z,100851.56
2022-11-14T12:27:23.005Z,100837.94
2022-11-14T12:32:50.149Z,100852.28
2022-11-14T12:38:17.574Z,100846.03
2022-11-14T12:43:42.776Z,100831.63
2022-11-14T12:49:38.170Z,100763.59
2022-11-14T12:54:59.692Z,100852.78
2022-11-14T13:00:22.530Z,100838.44
2022-11-14T13:05:58.261Z,100852.00
2022-11-14T13:12:02.340Z,100849.25
2022-11-14T13:17:46.122Z,100863.94
2022-11-14T13:23:45.979Z,100837.41
2022-11-14T13:29:07.593Z,100870.91
2022-11-14T13:34:44.597Z,100857.69
2022-11-14T13:40:15.270Z,100834.69
2022-11-14T13:45:53.529Z,100856.75
2022-11-14T13:57:08.291Z,100800.00
2022-11-14T14:02:44.453Z,100828.59
2022-11-14T14:08:32.470Z,100828.44
2022-11-14T14:14:10.778Z,100743.22
2022-11-14T14:19:44.170Z,100822.00
2022-11-14T14:25:16.387Z,100825.50
2022-11-14T14:30:37.673Z,100810.47
2022-11-14T14:35:58.905Z,100793.00
2022-11-14T14:41:21.348Z,100779.59
2022-11-14T14:46:42.345Z,100782.34
2022-11-14T14:52:20.468Z,100758.16
2022-11-14T14:57:43.307Z,100774.00
2022-11-14T15:03:05.067Z,100775.88
2022-11-14T15:08:27.435Z,100768.31
2022-11-14T15:13:53.490Z,100765.13
2022-11-14T15:19:16.679Z,100766.25
2022-11-14T15:24:42.702Z,100771.53
2022-11-14T15:30:08.081Z,100768.16
2022-11-14T15:35:32.965Z,100755.81
2022-11-14T15:41:17.598Z,100670.53
2022-11-14T15:46:43.310Z,100748.41
2022-11-14T15:52:05.589Z,100745.75
2022-11-14T15:57:26.900Z,100741.88
2022-11-14T16:02:52.311Z,100754.13
2022-11-14T16:08:13.455Z,100715.88
2022-11-14T16:13:34.480Z,100719.91
2022-11-14T16:18:57.767Z,100748.09
2022-11-14T16:24:23.998Z,100702.50
2022-11-14T16:29:45.541Z,100745.75
2022-11-14T16:35:13.725Z,100748.69
2022-11-14T16:40:35.546Z,100752.38
2022-11-14T16:45:56.710Z,100663.84
2022-11-14T16:51:46.684Z,100752.00
2022-11-14T16:57:00.595Z,100746.78
2022-11-14T17:02:22.011Z,100747.38
2022-11-14T17:07:44.841Z,100738.13
2022-11-14T17:13:06.283Z,100737.81
2022-11-14T17:18:27.972Z,100727.25
2022-11-14T17:23:56.406Z,100713.50
2022-11-14T17:29:17.905Z,100728.09
2022-11-14T17:34:39.144Z,100711.28
2022-11-14T17:40:01.994Z,100719.31
2022-11-14T17:45:24.233Z,100717.53
2022-11-14T17:50:45.683Z,100715.06
2022-11-14T17:56:09.069Z,100701.53
2022-11-14T18:01:31.569Z,100713.50
2022-11-14T18:06:53.619Z,100702.13
2022-11-14T18:12:16.477Z,100716.88
2022-11-14T18:17:37.768Z,100715.47
2022-11-14T18:22:58.902Z,100639.81
2022-11-14T18:28:22.769Z,100709.63
2022-11-14T18:33:44.106Z,100713.78
2022-11-14T18:39:05.455Z,100700.75
2022-11-14T18:44:27.938Z,100707.41
2022-11-14T18:49:49.420Z,100635.97
2022-11-14T18:55:10.591Z,100711.03
2022-11-14T19:00:33.735Z,100706.56
2022-11-14T19:05:54.848Z,100703.38
2022-11-14T19:11:36.157Z,100720.19
2022-11-14T19:17:00.680Z,100606.59
2022-11-14T19:22:22.120Z,100720.09
2022-11-14T19:27:43.644Z,100712.84
2022-11-14T19:33:07.119Z,100710.41
2022-11-14T19:38:28.389Z,100663.38
2022-11-14T19:43:50.029Z,100704.00
2022-11-14T19:49:13.239Z,100713.16
2022-11-14T19:54:34.737Z,100697.69
2022-11-14T19:59:56.517Z,100621.97
2022-11-14T20:05:19.648Z,100715.03
2022-11-14T20:10:48.205Z,100693.69
2022-11-14T20:16:10.629Z,100714.47
2022-11-14T20:21:35.933Z,100718.78
2022-11-14T20:26:57.409Z,100733.81
2022-11-14T20:32:18.979Z,100715.97
2022-11-14T20:37:41.320Z,100715.88
2022-11-14T20:43:02.455Z,100715.78
2022-11-14T20:48:23.656Z,100711.19
2022-11-14T20:53:46.661Z,100702.13
2022-11-14T20:59:08.394Z,100692.97
2022-11-14T21:04:29.931Z,100655.34
2022-11-14T21:10:13.917Z,100691.56
2022-11-14T21:15:36.488Z,100696.28
2022-11-14T21:21:03.253Z,100687.66
2022-11-14T21:26:27.890Z,100694.47
2022-11-14T21:31:49.277Z,100693.31
2022-11-14T21:37:10.808Z,100672.19
2022-11-14T21:42:33.552Z,100672.84
2022-11-14T21:47:54.953Z,100661.53
2022-11-14T21:53:16.570Z,100675.94
2022-11-14T21:58:39.643Z,100671.47
2022-11-14T22:04:12.948Z,100663.94
2022-11-14T22:09:34.403Z,100668.44
2022-11-14T22:14:57.816Z,100651.59
2022-11-14T22:20:19.422Z,100679.13
2022-11-14T22:25:41.363Z,100681.19
2022-11-14T22:31:09.060Z,100647.34
2022-11-14T22:36:30.674Z,100690.47
2022-11-14T22:41:52.068Z,100678.38
2022-11-14T22:47:17.527Z,100671.78
2022-11-14T22:52:38.660Z,100671.66
2022-11-14T22:57:59.795Z,100664.59
2022-11-14T23:03:23.240Z,100668.84
2022-11-14T23:08:44.841Z,100663.06
2022-11-14T23:14:06.379Z,100670.56
2022-11-14T23:19:28.835Z,100669.53
2022-11-14T23:24:49.802Z,100663.19
2022-11-14T23:30:11.790Z,100655.81
2022-11-14T23:35:34.023Z,100643.97
2022-11-14T23:40:55.549Z,100655.84
2022-11-14T23:46:16.997Z,100650.91
2022-11-14T23:51:39.662Z,100649.63
2022-11-14T23:57:04.372Z,100651.03
